Terminal Aerodrome Forecast
Issued by NWS

Home | Current Version | Previous Version | Text Only | Print | Product List | Glossary Off
Versions: 1 2 3 4 5 6 7 8 9 10 11 12 13 14 15 16 17 18

000
FTUS43 KABR 282320
TAFMBG
TAF
KMBG 282320Z 2900/2924 15006KT P6SM SKC
     FM290800 VRB03KT P6SM FEW250
     FM291200 01008KT P6SM FEW250
     FM291600 02012KT P6SM FEW250=

USA.gov is the U.S. government's official web portal to all federal, state and local government web resources and services.